Time;durP1;ratioP1;P1;durP2;ratioP2;P2;SDS_P1;SDS_P2;PMS_P1;PMS_P2;Temp;Humidity;BMP_temperature;BMP_pressure;BME280_temperature;BME280_humidity;BME280_pressure;Samples;Min_cycle;Max_cycle;Signal;HPM_P1;HPM_P2
2024/02/28 00:02:23;;;;;;;0.70;0.70;;;;;;;7.02;78.34;98478.59;4965957;28;20137;-91
2024/02/28 00:04:49;;;;;;;0.70;0.70;;;;;;;6.88;78.35;98478.97;4950672;28;20050;-90
2024/02/28 00:07:14;;;;;;;0.80;0.80;;;;;;;6.88;78.32;98481.63;4936836;28;20363;-90
2024/02/28 00:09:40;;;;;;;0.70;0.70;;;;;;;6.91;78.33;98480.84;4973602;28;20317;-89
2024/02/28 00:12:05;;;;;;;0.80;0.80;;;;;;;6.80;78.39;98485.69;4951969;28;20046;-91
2024/02/28 00:14:31;;;;;;;0.80;0.80;;;;;;;6.85;78.28;98489.47;4964421;28;20043;-91
2024/02/28 00:16:56;;;;;;;0.70;0.70;;;;;;;6.87;78.33;98495.72;4967048;28;20031;-90
2024/02/28 00:19:23;;;;;;;0.70;0.70;;;;;;;6.78;78.97;98499.75;4962833;28;20062;-91
2024/02/28 00:21:48;;;;;;;0.80;0.80;;;;;;;6.74;78.77;98503.13;4939777;28;20676;-91
2024/02/28 00:24:13;;;;;;;0.70;0.70;;;;;;;6.80;78.79;98500.72;4932900;28;20066;-91
2024/02/28 00:26:43;;;;;;;0.70;0.70;;;;;;;6.84;78.60;98495.59;4968086;28;20050;-90
2024/02/28 00:29:11;;;;;;;0.70;0.70;;;;;;;6.85;78.44;98494.78;4968348;28;20035;-91
2024/02/28 00:31:37;;;;;;;0.68;0.68;;;;;;;6.90;78.17;98495.84;4968291;28;20034;-91
2024/02/28 00:34:02;;;;;;;0.70;0.70;;;;;;;6.85;78.08;98493.84;4969916;28;20035;-92
2024/02/28 00:36:27;;;;;;;0.70;0.70;;;;;;;6.81;78.17;98506.09;4967675;28;20126;-93
2024/02/28 00:38:53;;;;;;;0.70;0.70;;;;;;;6.75;77.79;98500.53;4972829;28;20311;-92
2024/02/28 00:41:18;;;;;;;0.70;0.70;;;;;;;6.75;78.50;98499.63;4958223;28;20037;-91
2024/02/28 00:43:44;;;;;;;0.70;0.70;;;;;;;6.74;78.72;98506.69;4942981;28;20114;-91
2024/02/28 00:46:11;;;;;;;0.80;0.80;;;;;;;6.79;78.25;98502.47;4969016;28;20027;-92
2024/02/28 00:48:40;;;;;;;0.73;0.73;;;;;;;6.76;77.87;98496.16;4954990;28;20042;-92
2024/02/28 00:51:07;;;;;;;0.68;0.68;;;;;;;6.69;78.33;98495.88;4954050;28;20077;-92
2024/02/28 00:53:33;;;;;;;0.70;0.70;;;;;;;6.74;78.52;98504.03;4951378;28;20127;-92
2024/02/28 00:55:59;;;;;;;0.80;0.80;;;;;;;6.81;78.24;98500.78;4951971;28;20058;-92
2024/02/28 00:58:27;;;;;;;0.70;0.70;;;;;;;6.84;78.37;98506.19;4957051;28;20058;-93
2024/02/28 01:00:53;;;;;;;0.70;0.70;;;;;;;6.82;77.99;98507.91;4952440;28;20045;-92
2024/02/28 01:03:18;;;;;;;0.80;0.80;;;;;;;6.86;77.92;98504.53;4970151;28;20042;-93
2024/02/28 01:05:44;;;;;;;0.73;0.73;;;;;;;6.79;78.06;98506.84;4956431;28;20434;-92
2024/02/28 01:08:09;;;;;;;0.80;0.80;;;;;;;6.72;78.22;98505.72;4957052;28;20038;-93
2024/02/28 01:10:35;;;;;;;0.77;0.77;;;;;;;6.66;78.80;98500.19;4952561;28;20493;-93
2024/02/28 01:13:00;;;;;;;0.70;0.70;;;;;;;6.72;78.26;98504.81;4967329;28;20809;-92
2024/02/28 01:15:25;;;;;;;0.80;0.80;;;;;;;6.68;78.67;98506.44;4950612;28;20038;-91
2024/02/28 01:17:51;;;;;;;0.80;0.80;;;;;;;6.65;78.81;98503.66;4939141;28;20089;-91
2024/02/28 01:20:16;;;;;;;0.70;0.70;;;;;;;6.69;78.34;98500.28;4955457;28;20073;-90
2024/02/28 01:22:42;;;;;;;0.80;0.80;;;;;;;6.58;78.56;98499.84;4939056;28;20106;-91
2024/02/28 01:25:08;;;;;;;0.80;0.80;;;;;;;6.53;78.67;98503.16;4946068;28;20043;-91
2024/02/28 01:27:34;;;;;;;0.75;0.75;;;;;;;6.61;78.79;98507.94;4970381;28;20493;-90
2024/02/28 01:30:00;;;;;;;0.90;0.90;;;;;;;6.54;78.64;98504.97;4966097;28;20035;-92
2024/02/28 01:32:26;;;;;;;0.80;0.80;;;;;;;6.54;78.61;98508.53;4969660;28;20038;-92
2024/02/28 01:34:51;;;;;;;0.80;0.80;;;;;;;6.54;78.86;98504.97;4969483;28;20053;-90
2024/02/28 01:37:17;;;;;;;0.80;0.80;;;;;;;6.55;78.51;98509.41;4956523;28;20744;-89
2024/02/28 01:39:42;;;;;;;0.70;0.70;;;;;;;6.48;79.04;98504.72;4968049;28;20753;-91
2024/02/28 01:42:09;;;;;;;0.80;0.80;;;;;;;6.60;77.90;98511.41;4957794;28;20023;-92
2024/02/28 01:44:44;;;;;;;0.80;0.80;;;;;;;6.69;77.33;98510.88;4968780;28;20046;-90
2024/02/28 01:47:09;;;;;;;0.70;0.70;;;;;;;6.62;77.61;98514.16;4959961;28;20039;-91
2024/02/28 01:49:35;;;;;;;0.80;0.80;;;;;;;6.65;77.25;98522.19;4969372;28;20455;-91
2024/02/28 01:52:01;;;;;;;0.80;0.80;;;;;;;6.60;77.58;98515.81;4970558;28;20742;-91
2024/02/28 01:54:29;;;;;;;0.80;0.80;;;;;;;6.55;77.79;98517.38;4960349;28;20050;-90
2024/02/28 01:56:56;;;;;;;0.80;0.80;;;;;;;6.59;77.26;98519.31;4980530;28;20056;-90
2024/02/28 01:59:24;;;;;;;0.80;0.80;;;;;;;6.53;77.52;98529.66;4956519;28;20034;-90
2024/02/28 02:01:50;;;;;;;0.80;0.80;;;;;;;6.43;77.90;98531.94;4962480;28;20143;-88
2024/02/28 02:04:15;;;;;;;0.90;0.90;;;;;;;6.43;77.72;98531.03;4985308;28;20037;-90
2024/02/28 02:06:43;;;;;;;0.80;0.80;;;;;;;6.39;77.67;98537.03;4955808;28;20098;-89
2024/02/28 02:09:09;;;;;;;0.80;0.80;;;;;;;6.23;78.16;98537.19;4973787;28;20106;-91
2024/02/28 02:11:36;;;;;;;0.80;0.80;;;;;;;6.24;78.39;98537.28;4948482;28;20122;-90
2024/02/28 02:14:02;;;;;;;0.90;0.90;;;;;;;6.25;78.33;98538.19;4949244;28;20393;-91
2024/02/28 02:16:27;;;;;;;0.80;0.80;;;;;;;6.24;78.57;98550.53;4949242;28;20043;-89
2024/02/28 02:18:53;;;;;;;0.80;0.80;;;;;;;6.21;78.61;98547.75;4965661;28;20106;-91
2024/02/28 02:21:22;;;;;;;0.70;0.70;;;;;;;6.20;79.20;98551.25;4968840;28;20031;-90
2024/02/28 02:23:48;;;;;;;0.80;0.80;;;;;;;6.15;79.00;98545.75;4945345;28;20030;-92
2024/02/28 02:26:13;;;;;;;0.80;0.80;;;;;;;6.21;79.11;98549.50;4944927;28;20086;-91
2024/02/28 02:28:39;;;;;;;0.80;0.80;;;;;;;6.14;78.97;98548.34;4959566;28;20093;-90
2024/02/28 02:31:04;;;;;;;0.80;0.80;;;;;;;6.12;79.12;98555.28;4957881;28;20030;-90
2024/02/28 02:33:30;;;;;;;0.70;0.70;;;;;;;6.09;78.93;98555.19;4959762;28;20975;-91
2024/02/28 02:35:55;;;;;;;0.70;0.70;;;;;;;6.15;79.46;98566.94;4958914;28;20084;-89
2024/02/28 02:38:21;;;;;;;0.80;0.80;;;;;;;6.15;79.57;98566.03;4965191;28;20040;-91
2024/02/28 02:40:50;;;;;;;0.80;0.80;;;;;;;6.17;79.61;98572.28;4965474;28;20043;-90
2024/02/28 02:43:16;;;;;;;0.80;0.80;;;;;;;6.16;78.90;98574.03;4939208;28;20126;-90
2024/02/28 02:45:42;;;;;;;0.70;0.70;;;;;;;6.13;78.79;98578.28;4937764;28;20172;-90
2024/02/28 02:48:08;;;;;;;0.70;0.70;;;;;;;6.13;78.99;98581.88;4949658;28;20114;-89
2024/02/28 02:50:34;;;;;;;0.80;0.80;;;;;;;6.14;79.08;98586.31;4950341;28;20529;-91
2024/02/28 02:53:00;;;;;;;0.70;0.70;;;;;;;6.10;79.47;98588.75;4953402;28;20027;-89
2024/02/28 02:55:26;;;;;;;0.82;0.82;;;;;;;6.06;79.01;98590.38;4936704;28;20138;-89
2024/02/28 02:57:51;;;;;;;0.80;0.80;;;;;;;6.14;79.05;98593.38;4961119;28;20073;-92
2024/02/28 03:00:17;;;;;;;0.80;0.80;;;;;;;6.03;79.07;98589.31;4939312;28;20405;-90
2024/02/28 03:02:42;;;;;;;0.80;0.80;;;;;;;6.03;79.31;98605.19;4952657;28;20042;-88
2024/02/28 03:05:08;;;;;;;0.75;0.75;;;;;;;6.16;79.11;98596.97;4950348;28;21021;-90
2024/02/28 03:07:34;;;;;;;0.80;0.80;;;;;;;6.08;78.99;98608.97;4965883;28;20607;-92
2024/02/28 03:09:59;;;;;;;0.77;0.77;;;;;;;6.04;79.64;98601.75;4963832;28;20030;-91
2024/02/28 03:12:25;;;;;;;0.80;0.80;;;;;;;6.01;79.25;98612.19;4966465;28;20034;-90
2024/02/28 03:14:50;;;;;;;0.70;0.70;;;;;;;5.91;79.57;98613.47;4952024;28;20131;-91
2024/02/28 03:17:16;;;;;;;0.77;0.77;;;;;;;5.87;80.18;98617.72;4955504;28;20041;-90
2024/02/28 03:19:42;;;;;;;0.80;0.80;;;;;;;5.90;80.14;98619.63;4956108;28;20926;-91
2024/02/28 03:22:07;;;;;;;0.80;0.80;;;;;;;5.94;80.18;98629.56;4949448;28;20046;-91
2024/02/28 03:24:36;;;;;;;0.80;0.80;;;;;;;6.11;79.58;98633.84;4956365;28;20027;-91
2024/02/28 03:27:04;;;;;;;0.80;0.80;;;;;;;6.02;79.76;98633.44;4956887;28;20023;-91
2024/02/28 03:29:31;;;;;;;0.80;0.80;;;;;;;5.90;80.05;98633.75;4968381;28;20553;-91
2024/02/28 03:31:58;;;;;;;0.80;0.80;;;;;;;5.89;80.05;98642.53;4949591;28;20030;-90
2024/02/28 03:34:24;;;;;;;0.82;0.82;;;;;;;5.88;79.91;98647.75;4955969;28;20030;-91
2024/02/28 03:36:50;;;;;;;0.80;0.80;;;;;;;5.90;79.50;98641.69;4935442;28;20039;-91
2024/02/28 03:39:16;;;;;;;0.80;0.80;;;;;;;6.01;79.49;98646.63;4954945;28;20038;-91
2024/02/28 03:41:42;;;;;;;0.80;0.80;;;;;;;5.91;79.87;98656.78;4964172;28;20038;-92
2024/02/28 03:44:08;;;;;;;0.70;0.70;;;;;;;5.95;79.87;98656.94;4959370;28;20081;-91
2024/02/28 03:46:33;;;;;;;0.80;0.80;;;;;;;5.93;79.71;98655.94;4952452;28;20031;-92
2024/02/28 03:48:58;;;;;;;0.80;0.80;;;;;;;6.05;79.48;98659.16;4941221;28;20385;-91
2024/02/28 03:51:24;;;;;;;0.80;0.80;;;;;;;6.13;78.78;98663.03;4950820;28;20051;-91
2024/02/28 03:53:49;;;;;;;0.80;0.80;;;;;;;6.10;79.49;98665.56;4954930;28;20062;-90
2024/02/28 03:56:25;;;;;;;0.70;0.70;;;;;;;6.09;79.16;98666.41;4942670;28;20039;-90
2024/02/28 03:58:52;;;;;;;0.80;0.80;;;;;;;6.09;79.54;98669.97;4956623;28;20058;-89
2024/02/28 04:01:18;;;;;;;0.80;0.80;;;;;;;6.06;79.45;98669.81;4954896;28;20114;-90
2024/02/28 04:03:43;;;;;;;0.73;0.73;;;;;;;6.03;79.50;98674.06;4954565;28;20469;-89
2024/02/28 04:06:09;;;;;;;0.70;0.70;;;;;;;5.93;79.74;98685.97;4956489;28;20069;-89
2024/02/28 04:08:34;;;;;;;0.70;0.70;;;;;;;5.88;80.14;98677.78;4949896;28;20035;-91
2024/02/28 04:11:00;;;;;;;0.80;0.80;;;;;;;5.83;80.41;98684.59;4954350;28;20026;-92
2024/02/28 04:13:25;;;;;;;0.70;0.70;;;;;;;5.89;80.04;98684.91;4970848;28;20105;-92
2024/02/28 04:15:51;;;;;;;0.80;0.80;;;;;;;5.82;80.58;98688.09;4955094;28;20046;-91
2024/02/28 04:18:18;;;;;;;0.80;0.80;;;;;;;5.83;80.32;98686.34;4951888;28;20042;-90
2024/02/28 04:20:43;;;;;;;0.85;0.85;;;;;;;5.87;80.22;98686.56;4964612;28;20042;-91
2024/02/28 04:23:09;;;;;;;0.80;0.80;;;;;;;5.75;80.57;98693.94;4958490;28;20121;-90
2024/02/28 04:25:35;;;;;;;0.70;0.70;;;;;;;5.81;80.29;98693.31;4955225;28;20105;-90
2024/02/28 04:28:02;;;;;;;0.83;0.83;;;;;;;6.03;79.65;98687.28;4939421;28;20046;-89
2024/02/28 04:30:27;;;;;;;0.80;0.80;;;;;;;5.99;79.25;98682.69;4937648;28;20034;-90
2024/02/28 04:32:53;;;;;;;0.80;0.80;;;;;;;5.91;79.52;98688.56;4948013;28;20063;-90
2024/02/28 04:35:19;;;;;;;0.80;0.80;;;;;;;5.89;80.17;98686.63;4935523;28;20032;-90
2024/02/28 04:37:46;;;;;;;0.80;0.80;;;;;;;5.86;80.41;98682.09;4940186;28;20047;-91
2024/02/28 04:40:12;;;;;;;;;;;;;;;5.97;80.17;98689.66;4971455;28;20030;-91
2024/02/28 04:42:37;;;;;;;0.80;0.80;;;;;;;5.90;80.31;98691.09;4973749;28;19914;-91
2024/02/28 04:45:03;;;;;;;0.80;0.80;;;;;;;5.93;80.00;98687.72;4968655;28;20027;-91
2024/02/28 04:47:30;;;;;;;0.70;0.70;;;;;;;5.88;80.04;98685.72;4943824;28;20035;-91
2024/02/28 04:49:56;;;;;;;0.80;0.80;;;;;;;5.93;79.75;98687.72;4959711;28;20038;-91
2024/02/28 04:52:27;;;;;;;0.77;0.77;;;;;;;5.97;79.43;98692.31;4969143;28;20299;-91
2024/02/28 04:54:53;;;;;;;0.80;0.80;;;;;;;5.95;79.90;98691.34;4967069;28;20603;-92
2024/02/28 04:57:25;;;;;;;0.80;0.80;;;;;;;5.86;80.13;98695.34;4957931;28;20035;-92
2024/02/28 04:59:52;;;;;;;0.90;0.90;;;;;;;6.03;79.57;98692.59;4953879;28;20038;-94
2024/02/28 05:02:21;;;;;;;0.70;0.70;;;;;;;6.03;79.46;98690.84;4958616;28;20027;-91
2024/02/28 05:04:47;;;;;;;0.80;0.80;;;;;;;5.99;79.45;98695.94;4965032;28;20047;-92
2024/02/28 05:07:13;;;;;;;0.80;0.80;;;;;;;5.97;79.54;98698.53;4938647;28;20081;-92
2024/02/28 05:09:38;;;;;;;0.70;0.70;;;;;;;5.99;79.65;98702.16;4971545;28;20537;-92
2024/02/28 05:12:04;;;;;;;0.80;0.80;;;;;;;6.00;79.59;98700.41;4935031;28;20074;-92
2024/02/28 05:14:30;;;;;;;0.80;0.80;;;;;;;6.00;79.39;98703.06;4955893;28;20039;-91
2024/02/28 05:16:56;;;;;;;0.77;0.77;;;;;;;6.13;79.43;98701.06;4955983;28;20053;-91
2024/02/28 05:19:21;;;;;;;0.77;0.77;;;;;;;6.07;79.37;98703.41;4967580;28;20638;-91
2024/02/28 05:21:48;;;;;;;0.70;0.70;;;;;;;6.07;79.58;98703.41;4946671;28;20098;-89
2024/02/28 05:24:14;;;;;;;0.80;0.80;;;;;;;6.05;79.75;98706.84;4959112;28;20038;-90
2024/02/28 05:26:40;;;;;;;0.80;0.80;;;;;;;6.13;79.44;98702.78;4960291;28;20042;-89
2024/02/28 05:29:05;;;;;;;0.77;0.77;;;;;;;6.07;79.37;98699.84;4984668;28;20277;-89
2024/02/28 05:31:32;;;;;;;0.80;0.80;;;;;;;6.06;79.48;98701.59;4967391;28;20039;-90
2024/02/28 05:33:59;;;;;;;0.80;0.80;;;;;;;6.09;79.58;98695.56;4974064;28;20031;-90
2024/02/28 05:36:27;;;;;;;0.80;0.80;;;;;;;6.02;80.25;98704.03;4975239;28;20084;-92
2024/02/28 05:38:54;;;;;;;0.80;0.80;;;;;;;6.10;80.02;98705.31;4963994;28;20042;-92
2024/02/28 05:41:20;;;;;;;0.80;0.80;;;;;;;5.99;80.80;98714.47;4972749;28;20026;-91
2024/02/28 05:43:46;;;;;;;0.70;0.70;;;;;;;5.94;80.96;98711.63;4954095;28;20103;-90
2024/02/28 05:46:13;;;;;;;0.80;0.80;;;;;;;5.88;81.33;98720.13;4973515;28;20035;-89
2024/02/28 05:48:40;;;;;;;0.70;0.70;;;;;;;5.88;81.54;98720.13;4976293;28;20069;-88
2024/02/28 05:51:05;;;;;;;0.80;0.80;;;;;;;5.87;81.01;98723.63;4990295;28;20021;-88
2024/02/28 05:53:35;;;;;;;0.80;0.80;;;;;;;5.81;81.29;98728.63;4980344;28;20027;-89
2024/02/28 05:56:13;;;;;;;0.70;0.70;;;;;;;5.84;81.03;98731.41;4972331;28;20024;-88
2024/02/28 05:58:43;;;;;;;0.80;0.80;;;;;;;5.88;81.37;98735.13;4989654;28;20120;-91
2024/02/28 06:01:09;;;;;;;0.80;0.80;;;;;;;5.88;80.56;98738.66;4976128;28;20025;-91
2024/02/28 06:03:35;;;;;;;0.85;0.85;;;;;;;5.85;80.37;98743.84;4974467;28;20090;-89
2024/02/28 06:06:03;;;;;;;0.80;0.80;;;;;;;5.80;80.21;98745.38;4993082;28;20062;-89
2024/02/28 06:08:29;;;;;;;0.80;0.80;;;;;;;5.85;80.23;98751.78;4977915;28;20043;-91
2024/02/28 06:10:54;;;;;;;0.80;0.80;;;;;;;5.91;78.84;98760.03;4977824;28;20070;-92
2024/02/28 06:13:20;;;;;;;0.80;0.80;;;;;;;5.90;78.19;98767.91;4936702;28;20031;-90
2024/02/28 06:15:45;;;;;;;0.80;0.80;;;;;;;5.88;77.81;98766.91;4976436;28;20043;-90
2024/02/28 06:18:11;;;;;;;0.80;0.80;;;;;;;5.90;78.16;98770.53;4961783;28;20026;-92
2024/02/28 06:20:37;;;;;;;0.90;0.90;;;;;;;5.90;77.74;98766.16;4942691;28;20067;-92
2024/02/28 06:23:04;;;;;;;0.90;0.90;;;;;;;5.95;78.05;98766.41;4978725;28;20027;-91
2024/02/28 06:25:30;;;;;;;0.90;0.90;;;;;;;5.95;78.30;98766.41;4972411;28;20049;-91
2024/02/28 06:27:55;;;;;;;0.80;0.80;;;;;;;5.92;77.77;98776.84;4947629;28;20039;-92
2024/02/28 06:30:21;;;;;;;0.77;0.77;;;;;;;5.91;77.52;98777.66;4967503;28;20632;-91
2024/02/28 06:32:46;;;;;;;0.70;0.70;;;;;;;5.96;78.37;98788.50;4982048;28;20102;-91
2024/02/28 06:35:12;;;;;;;0.70;0.70;;;;;;;6.03;77.89;98780.88;4958314;28;20093;-90
2024/02/28 06:37:37;;;;;;;0.80;0.80;;;;;;;6.00;77.65;98791.38;4962556;28;20034;-90
2024/02/28 06:40:08;;;;;;;0.80;0.80;;;;;;;5.97;78.22;98792.94;4992889;28;20022;-89
2024/02/28 06:42:36;;;;;;;0.80;0.80;;;;;;;6.00;77.88;98798.41;4995656;28;20069;-91
2024/02/28 06:45:03;;;;;;;0.80;0.80;;;;;;;6.13;77.49;98800.78;4992028;28;20030;-93
2024/02/28 06:47:30;;;;;;;0.90;0.90;;;;;;;6.06;77.94;98802.25;4972871;28;20040;-90
2024/02/28 06:49:55;;;;;;;0.90;0.90;;;;;;;6.08;77.78;98803.19;4960995;28;20051;-92
2024/02/28 06:52:21;;;;;;;0.80;0.80;;;;;;;6.04;76.32;98800.38;4961056;28;20115;-91
2024/02/28 06:54:46;;;;;;;0.70;0.70;;;;;;;6.13;76.51;98804.38;4974207;28;20019;-91
2024/02/28 06:57:13;;;;;;;0.80;0.80;;;;;;;6.06;76.79;98814.56;4990327;28;20041;-91
2024/02/28 06:59:38;;;;;;;0.80;0.80;;;;;;;6.03;76.75;98812.66;4978066;28;20047;-93
2024/02/28 07:02:06;;;;;;;0.80;0.80;;;;;;;5.96;77.00;98818.53;4982900;28;20058;-91
2024/02/28 07:04:31;;;;;;;0.90;0.90;;;;;;;5.97;76.56;98815.03;4977392;28;20011;-89
2024/02/28 07:06:57;;;;;;;0.80;0.80;;;;;;;5.93;76.69;98821.00;4977354;28;20039;-92
2024/02/28 07:09:25;;;;;;;0.85;0.85;;;;;;;6.03;75.99;98814.41;4974570;28;20035;-91
2024/02/28 07:11:51;;;;;;;0.80;0.80;;;;;;;6.13;76.00;98814.03;4959068;28;20074;-92
2024/02/28 07:14:16;;;;;;;0.80;0.80;;;;;;;6.11;76.69;98813.06;4971780;28;20121;-92
2024/02/28 07:16:43;;;;;;;0.90;0.90;;;;;;;6.04;77.02;98824.22;4939500;28;20097;-91
2024/02/28 07:19:08;;;;;;;0.80;0.80;;;;;;;6.12;77.08;98828.09;4946937;28;20043;-92
2024/02/28 07:21:36;;;;;;;0.80;0.80;;;;;;;6.31;75.97;98828.16;4952330;28;20487;-93
2024/02/28 07:24:05;;;;;;;0.90;0.90;;;;;;;6.30;75.78;98829.00;4966007;28;20129;-92
2024/02/28 07:26:31;;;;;;;0.80;0.80;;;;;;;6.15;76.15;98844.16;4980571;28;20026;-91
2024/02/28 07:28:57;;;;;;;0.77;0.77;;;;;;;6.18;76.02;98841.66;4985397;28;20046;-91
2024/02/28 07:31:23;;;;;;;0.70;0.70;;;;;;;6.33;75.87;98849.44;4976327;28;20039;-91
2024/02/28 07:33:48;;;;;;;0.80;0.80;;;;;;;6.21;76.35;98848.84;4981317;28;20039;-90
2024/02/28 07:36:14;;;;;;;0.80;0.80;;;;;;;6.17;75.87;98851.31;4970078;28;20109;-91
2024/02/28 07:38:42;;;;;;;0.77;0.77;;;;;;;6.40;75.76;98857.72;4988425;28;20026;-90
2024/02/28 07:41:10;;;;;;;0.80;0.80;;;;;;;6.36;76.20;98863.72;4977909;28;20062;-92
2024/02/28 07:43:38;;;;;;;0.80;0.80;;;;;;;6.40;76.02;98862.13;4975541;28;20054;-91
2024/02/28 07:46:08;;;;;;;0.80;0.80;;;;;;;6.34;76.00;98873.34;4963079;28;20031;-90
2024/02/28 07:48:34;;;;;;;0.80;0.80;;;;;;;6.40;75.98;98868.34;4985239;28;20059;-91
2024/02/28 07:51:00;;;;;;;0.80;0.80;;;;;;;6.42;75.99;98874.63;4956493;28;20086;-90
2024/02/28 07:53:26;;;;;;;0.80;0.80;;;;;;;6.40;75.79;98876.28;4970572;28;20031;-90
2024/02/28 07:55:52;;;;;;;0.80;0.80;;;;;;;6.31;76.77;98882.88;4991165;28;20019;-91
2024/02/28 07:58:17;;;;;;;0.80;0.80;;;;;;;6.36;75.92;98882.25;4977776;28;20074;-91
2024/02/28 08:00:43;;;;;;;0.80;0.80;;;;;;;6.37;76.26;98883.16;4962931;28;20018;-90
2024/02/28 08:03:09;;;;;;;0.88;0.88;;;;;;;6.36;76.55;98887.56;4991892;28;20046;-91
2024/02/28 08:05:39;;;;;;;0.80;0.80;;;;;;;6.48;76.18;98887.25;4992390;28;20049;-92
2024/02/28 08:08:08;;;;;;;0.80;0.80;;;;;;;6.64;75.50;98895.09;4979957;28;20095;-89
2024/02/28 08:10:35;;;;;;;0.90;0.90;;;;;;;6.41;76.67;98901.03;4988939;28;20066;-91
2024/02/28 08:13:01;;;;;;;0.80;0.80;;;;;;;6.50;76.39;98903.22;4995271;28;20016;-90
2024/02/28 08:15:27;;;;;;;0.80;0.80;;;;;;;6.41;76.88;98896.63;4957160;28;20086;-91
2024/02/28 08:17:53;;;;;;;0.70;0.70;;;;;;;6.58;76.51;98908.06;4987559;28;20039;-90
2024/02/28 08:20:19;;;;;;;0.80;0.80;;;;;;;6.53;76.71;98911.34;4976934;28;20022;-90
2024/02/28 08:22:46;;;;;;;0.80;0.80;;;;;;;6.60;76.69;98913.44;4985563;28;20049;-89
2024/02/28 08:25:11;;;;;;;0.80;0.80;;;;;;;6.57;76.69;98913.31;4971010;28;20015;-90
2024/02/28 08:27:38;;;;;;;0.80;0.80;;;;;;;6.43;77.33;98913.53;4987860;28;20126;-89
2024/02/28 08:30:05;;;;;;;0.80;0.80;;;;;;;6.25;77.71;98906.44;4969807;28;20018;-89
2024/02/28 08:32:31;;;;;;;;;;;;;;;6.35;77.29;98916.66;4986574;28;20091;-89
2024/02/28 08:34:58;;;;;;;0.90;0.90;;;;;;;6.26;77.06;98917.09;4986129;28;19930;-88
2024/02/28 08:37:24;;;;;;;0.90;0.90;;;;;;;6.03;77.99;98917.72;4977027;28;20053;-89
2024/02/28 08:39:49;;;;;;;0.80;0.80;;;;;;;5.83;79.01;98921.97;4986666;28;20035;-89
2024/02/28 08:42:14;;;;;;;0.90;0.90;;;;;;;5.71;79.88;98924.91;4973806;28;20038;-88
2024/02/28 08:44:40;;;;;;;0.82;0.82;;;;;;;5.99;79.18;98926.31;4983061;28;20069;-90
2024/02/28 08:47:09;;;;;;;0.80;0.80;;;;;;;6.10;78.29;98918.09;4970491;28;20026;-88
2024/02/28 08:49:35;;;;;;;0.80;0.80;;;;;;;6.06;77.55;98920.53;4960848;28;20024;-91
2024/02/28 08:52:01;;;;;;;0.90;0.90;;;;;;;6.04;77.94;98922.19;4989779;28;20079;-93
2024/02/28 08:54:27;;;;;;;0.90;0.90;;;;;;;6.11;77.47;98917.25;4979524;28;20034;-90
2024/02/28 08:56:53;;;;;;;0.82;0.82;;;;;;;6.07;77.70;98920.59;4995532;28;20031;-90
2024/02/28 08:59:18;;;;;;;0.80;0.80;;;;;;;6.27;77.04;98923.31;4976237;28;20227;-89
2024/02/28 09:01:44;;;;;;;0.90;0.90;;;;;;;6.16;77.06;98928.09;4959751;28;20047;-89
2024/02/28 09:04:10;;;;;;;0.90;0.90;;;;;;;6.21;76.74;98923.91;4959750;28;20034;-89
2024/02/28 09:06:36;;;;;;;0.90;0.90;;;;;;;6.14;77.11;98921.81;4980698;28;20039;-90
2024/02/28 09:09:02;;;;;;;0.80;0.80;;;;;;;6.03;77.18;98920.34;4979268;28;20031;-91
2024/02/28 09:11:27;;;;;;;0.80;0.80;;;;;;;6.24;76.65;98920.53;4945655;28;20034;-91
2024/02/28 09:13:53;;;;;;;0.90;0.90;;;;;;;6.55;76.20;98918.50;4979447;28;20572;-93
2024/02/28 09:16:18;;;;;;;0.90;0.90;;;;;;;6.52;75.92;98930.72;4963987;28;20065;-90
2024/02/28 09:18:45;;;;;;;0.90;0.90;;;;;;;6.67;75.23;98923.50;4968279;28;20489;-92
2024/02/28 09:21:11;;;;;;;0.90;0.90;;;;;;;6.61;75.54;98921.47;4980626;28;20184;-91
2024/02/28 09:23:37;;;;;;;0.90;0.90;;;;;;;6.57;75.57;98930.13;4965871;28;20043;-90
2024/02/28 09:26:05;;;;;;;0.90;0.90;;;;;;;6.55;74.76;98933.50;4976649;28;20062;-91
2024/02/28 09:28:32;;;;;;;0.85;0.85;;;;;;;6.54;75.83;98935.25;4977483;28;20050;-89
2024/02/28 09:30:59;;;;;;;0.90;0.90;;;;;;;6.64;75.45;98921.59;4967341;28;20035;-90
2024/02/28 09:33:25;;;;;;;0.82;0.82;;;;;;;6.89;74.03;98921.00;4977903;28;20098;-91
2024/02/28 09:35:52;;;;;;;0.90;0.90;;;;;;;7.04;73.47;98927.84;4951456;28;20031;-92
2024/02/28 09:38:19;;;;;;;0.80;0.80;;;;;;;7.18;72.40;98922.34;4947946;28;20038;-92
2024/02/28 09:40:50;;;;;;;0.85;0.85;;;;;;;6.96;72.83;98924.88;4968813;28;20035;-92
2024/02/28 09:43:28;;;;;;;0.82;0.82;;;;;;;7.16;72.11;98925.78;4949738;28;20035;-91
2024/02/28 09:45:59;;;;;;;0.90;0.90;;;;;;;7.33;71.67;98916.84;4934573;28;20043;-93
2024/02/28 09:48:31;;;;;;;0.80;0.80;;;;;;;7.60;70.92;98918.88;4946294;28;20067;-91
2024/02/28 09:50:57;;;;;;;0.80;0.80;;;;;;;7.83;70.37;98925.19;4968160;28;20057;-92
2024/02/28 09:53:24;;;;;;;0.80;0.80;;;;;;;7.89;70.25;98931.66;4964134;28;20031;-93
2024/02/28 09:55:50;;;;;;;0.80;0.80;;;;;;;7.77;70.30;98936.47;4953255;28;20051;-92
2024/02/28 09:58:17;;;;;;;0.80;0.80;;;;;;;8.17;68.78;98931.09;4976929;28;20058;-91
2024/02/28 10:00:44;;;;;;;0.80;0.80;;;;;;;8.34;68.32;98931.78;4928131;28;20039;-92
2024/02/28 10:03:13;;;;;;;0.80;0.80;;;;;;;8.09;67.93;98931.59;4952796;28;20098;-92
2024/02/28 10:05:39;;;;;;;0.80;0.80;;;;;;;7.17;72.12;98939.09;4962560;28;20121;-91
2024/02/28 10:08:05;;;;;;;0.77;0.77;;;;;;;7.97;68.57;98935.56;4961314;28;20038;-89
2024/02/28 10:10:31;;;;;;;0.70;0.70;;;;;;;7.75;67.31;98937.22;4980422;28;20094;-90
2024/02/28 10:12:58;;;;;;;0.70;0.70;;;;;;;6.96;70.57;98939.88;4979731;28;20050;-90
2024/02/28 10:15:26;;;;;;;0.80;0.80;;;;;;;7.50;69.70;98940.56;4981452;28;20054;-90
2024/02/28 10:17:51;;;;;;;0.80;0.80;;;;;;;7.23;69.38;98948.19;4984953;28;20091;-90
2024/02/28 10:20:17;;;;;;;0.70;0.70;;;;;;;7.40;69.52;98948.09;4974796;28;20050;-89
2024/02/28 10:22:42;;;;;;;0.75;0.75;;;;;;;7.58;69.00;98944.47;4968411;28;20038;-90
2024/02/28 10:25:08;;;;;;;0.75;0.75;;;;;;;7.23;69.09;98951.72;4968447;28;20125;-93
2024/02/28 10:27:35;;;;;;;0.70;0.70;;;;;;;7.49;68.25;98952.03;4950971;28;20031;-92
2024/02/28 10:30:07;;;;;;;0.80;0.80;;;;;;;7.79;68.32;98964.00;4945804;28;20161;-93
2024/02/28 10:32:36;;;;;;;0.80;0.80;;;;;;;7.89;67.08;98965.28;4968096;28;20047;-93
2024/02/28 10:35:03;;;;;;;0.70;0.70;;;;;;;7.25;68.95;98958.03;4967054;28;20094;-92
2024/02/28 10:37:31;;;;;;;0.80;0.80;;;;;;;8.02;66.94;98967.66;4947854;28;20038;-92
2024/02/28 10:39:57;;;;;;;0.70;0.70;;;;;;;8.57;65.62;98966.41;4947161;28;20162;-91
2024/02/28 10:42:29;;;;;;;0.80;0.80;;;;;;;8.69;64.31;98966.91;4953249;28;20058;-91
2024/02/28 10:44:58;;;;;;;0.68;0.68;;;;;;;8.52;64.82;98968.88;4970599;28;20065;-91
2024/02/28 10:47:24;;;;;;;0.80;0.80;;;;;;;8.21;65.80;98977.31;4975825;28;20043;-90
2024/02/28 10:49:49;;;;;;;0.70;0.70;;;;;;;8.38;65.29;98978.03;4959563;28;20054;-92
2024/02/28 10:52:21;;;;;;;0.70;0.70;;;;;;;8.53;65.39;98978.69;4958046;28;20043;-92
2024/02/28 10:54:55;;;;;;;0.70;0.70;;;;;;;8.50;65.53;98982.97;4959383;28;20063;-92
2024/02/28 10:57:24;;;;;;;0.70;0.70;;;;;;;9.05;63.35;98993.16;4958584;28;20062;-89
2024/02/28 10:59:50;;;;;;;0.70;0.70;;;;;;;8.91;63.68;98990.88;4963467;28;20018;-88
2024/02/28 11:02:16;;;;;;;0.70;0.70;;;;;;;8.80;63.50;98983.31;4960141;28;20031;-89
2024/02/28 11:04:41;;;;;;;0.70;0.70;;;;;;;8.87;63.69;98985.38;4961116;28;20058;-89
2024/02/28 11:07:07;;;;;;;0.70;0.70;;;;;;;8.97;63.95;98985.78;4977029;28;20040;-90
2024/02/28 11:09:35;;;;;;;0.70;0.70;;;;;;;8.90;63.57;98983.72;4966123;29;20075;-92
2024/02/28 11:12:04;;;;;;;0.70;0.70;;;;;;;9.07;62.36;98979.06;4982992;28;20039;-89
2024/02/28 11:14:31;;;;;;;0.60;0.60;;;;;;;9.31;62.54;98965.81;4961878;28;20058;-91
2024/02/28 11:17:00;;;;;;;0.80;0.80;;;;;;;9.45;61.36;98979.63;4962710;28;20022;-90
2024/02/28 11:19:29;;;;;;;0.55;0.55;;;;;;;9.35;61.94;98982.81;4972178;28;20110;-89
2024/02/28 11:21:55;;;;;;;0.63;0.63;;;;;;;9.09;62.31;98987.13;4950760;28;20043;-90
2024/02/28 11:24:25;;;;;;;0.60;0.60;;;;;;;9.10;62.41;98988.91;4969024;28;20030;-89
2024/02/28 11:26:52;;;;;;;0.70;0.70;;;;;;;9.06;63.50;98982.59;4987244;28;20043;-93
2024/02/28 11:29:29;;;;;;;0.70;0.70;;;;;;;8.86;63.76;98987.13;4968862;28;20042;-92
2024/02/28 11:31:57;;;;;;;0.60;0.60;;;;;;;8.85;64.26;98985.28;4952923;28;20031;-90
2024/02/28 11:34:25;;;;;;;0.70;0.70;;;;;;;8.73;64.39;98990.13;4958232;28;20081;-93
2024/02/28 11:36:53;;;;;;;0.70;0.70;;;;;;;8.70;65.07;99001.56;4984400;28;20030;-92
2024/02/28 11:39:20;;;;;;;0.70;0.70;;;;;;;8.65;64.90;99000.47;4964091;28;20034;-91